createdAt,value
2018-03-25T00:01:50.664Z,19.00
2018-03-25T00:04:19.167Z,21.33
2018-03-25T00:06:47.923Z,17.20
2018-03-25T00:09:16.347Z,19.23
2018-03-25T00:11:44.790Z,18.70
2018-03-25T00:14:13.195Z,19.50
2018-03-25T00:16:41.647Z,17.85
2018-03-25T00:19:10.017Z,19.50
2018-03-25T00:21:38.409Z,18.70
2018-03-25T00:24:06.932Z,16.80
2018-03-25T00:26:35.347Z,18.60
2018-03-25T00:29:03.763Z,18.95
2018-03-25T00:31:32.145Z,19.58
2018-03-25T00:34:00.587Z,18.98
2018-03-25T00:36:28.979Z,18.45
2018-03-25T00:38:57.475Z,20.52
2018-03-25T00:41:25.853Z,20.92
2018-03-25T00:43:54.250Z,19.25
2018-03-25T00:46:22.660Z,21.67
2018-03-25T00:48:51.149Z,19.95
2018-03-25T00:51:19.534Z,20.88
2018-03-25T00:53:47.933Z,20.98
2018-03-25T00:56:16.327Z,20.98
2018-03-25T00:58:44.760Z,19.52
2018-03-25T01:01:13.222Z,20.10
2018-03-25T01:03:41.633Z,20.77
2018-03-25T01:06:10.280Z,20.40
2018-03-25T01:08:38.872Z,19.23
2018-03-25T01:11:07.412Z,22.10
2018-03-25T01:13:35.871Z,20.77
2018-03-25T01:16:10.986Z,20.80
2018-03-25T01:18:39.449Z,19.10
2018-03-25T01:21:07.900Z,21.75
2018-03-25T01:23:36.357Z,20.27
2018-03-25T01:26:04.777Z,21.67
2018-03-25T01:28:33.199Z,21.23
2018-03-25T01:31:01.593Z,20.73
2018-03-25T01:33:29.983Z,22.10
2018-03-25T01:35:58.461Z,23.77
2018-03-25T01:38:26.864Z,26.67
2018-03-25T01:40:55.256Z,26.60
2018-03-25T01:43:23.779Z,27.62
2018-03-25T01:45:52.174Z,27.27
2018-03-25T01:48:20.666Z,24.80
2018-03-25T01:50:49.038Z,25.05
2018-03-25T01:53:17.443Z,24.70
2018-03-25T01:55:45.816Z,24.87
2018-03-25T01:58:14.241Z,24.45
2018-03-25T02:00:42.672Z,25.12
2018-03-25T02:03:11.072Z,26.87
2018-03-25T02:05:39.453Z,26.62
2018-03-25T02:08:07.822Z,26.90
2018-03-25T02:10:36.244Z,24.95
2018-03-25T02:13:04.810Z,25.83
2018-03-25T02:15:33.203Z,23.60
2018-03-25T02:18:01.587Z,22.02
2018-03-25T02:20:29.984Z,25.75
2018-03-25T02:22:58.361Z,21.30
2018-03-25T02:25:26.884Z,24.12
2018-03-25T02:27:55.309Z,21.70
2018-03-25T02:30:23.674Z,24.08
2018-03-25T02:32:52.201Z,26.35
2018-03-25T02:35:20.609Z,23.20
2018-03-25T02:37:49.062Z,25.08
2018-03-25T02:40:17.477Z,26.02
2018-03-25T02:42:45.875Z,26.02
2018-03-25T02:45:14.286Z,25.40
2018-03-25T02:47:42.693Z,24.87
2018-03-25T02:50:11.139Z,25.17
2018-03-25T02:52:39.525Z,24.80
2018-03-25T02:55:08.082Z,23.67
2018-03-25T02:57:36.468Z,22.95
2018-03-25T03:02:45.426Z,24.30
2018-03-25T03:05:13.786Z,24.95
2018-03-25T03:07:42.240Z,22.98
2018-03-25T03:10:10.643Z,21.48
2018-03-25T03:12:39.021Z,20.55
2018-03-25T03:15:07.399Z,22.75
2018-03-25T03:17:35.785Z,22.95
2018-03-25T03:20:04.315Z,21.90
2018-03-25T03:22:32.693Z,23.85
2018-03-25T03:25:01.109Z,22.67
2018-03-25T03:27:29.486Z,23.70
2018-03-25T03:29:57.937Z,21.33
2018-03-25T03:32:26.345Z,22.30
2018-03-25T03:34:54.727Z,21.87
2018-03-25T03:37:23.121Z,22.92
2018-03-25T03:39:51.492Z,19.55
2018-03-25T03:42:19.917Z,20.25
2018-03-25T03:44:48.388Z,21.60
2018-03-25T03:47:16.804Z,21.05
2018-03-25T03:49:45.222Z,22.25
2018-03-25T03:52:13.663Z,21.27
2018-03-25T03:54:42.372Z,22.65
2018-03-25T03:57:10.747Z,20.90
2018-03-25T03:59:39.113Z,20.33
2018-03-25T04:02:07.517Z,19.48
2018-03-25T04:04:35.937Z,18.98
2018-03-25T04:07:04.392Z,21.77
2018-03-25T04:09:32.832Z,20.27
2018-03-25T04:12:01.323Z,17.85
2018-03-25T04:14:29.731Z,19.75
2018-03-25T04:16:58.114Z,18.15
2018-03-25T04:19:26.534Z,19.05
2018-03-25T04:21:54.924Z,20.48
2018-03-25T04:24:23.355Z,18.52
2018-03-25T04:26:51.771Z,18.00
2018-03-25T04:29:20.167Z,17.85
2018-03-25T04:31:48.572Z,18.62
2018-03-25T04:34:19.895Z,18.62
2018-03-25T04:36:48.308Z,18.30
2018-03-25T04:39:16.711Z,19.90
2018-03-25T04:41:45.277Z,18.92
2018-03-25T04:44:13.677Z,20.58
2018-03-25T04:46:42.100Z,19.92
2018-03-25T04:49:10.508Z,17.55
2018-03-25T04:51:38.918Z,17.42
2018-03-25T04:54:07.462Z,17.60
2018-03-25T04:56:35.908Z,18.92
2018-03-25T04:59:04.308Z,18.30
2018-03-25T05:01:32.729Z,19.30
2018-03-25T05:04:01.155Z,18.95
2018-03-25T05:06:29.528Z,18.75
2018-03-25T05:08:58.026Z,18.98
2018-03-25T05:11:26.460Z,17.80
2018-03-25T05:13:55.017Z,20.02
2018-03-25T05:16:23.382Z,19.50
2018-03-25T05:18:51.861Z,18.15
2018-03-25T05:21:20.231Z,17.80
2018-03-25T05:23:48.605Z,18.87
2018-03-25T05:26:17.017Z,19.95
2018-03-25T05:28:45.397Z,18.70
2018-03-25T05:31:13.799Z,19.30
2018-03-25T05:33:42.275Z,17.65
2018-03-25T05:36:10.653Z,17.85
2018-03-25T05:38:39.032Z,17.50
2018-03-25T05:41:07.419Z,16.40
2018-03-25T05:43:35.838Z,16.92
2018-03-25T05:46:04.275Z,17.60
2018-03-25T05:48:32.702Z,15.23
2018-03-25T05:51:01.185Z,16.73
2018-03-25T05:53:29.572Z,17.55
2018-03-25T05:55:58.019Z,16.45
2018-03-25T05:58:26.530Z,17.12
2018-03-25T06:00:54.934Z,19.52
2018-03-25T06:03:23.484Z,15.50
2018-03-25T06:05:51.978Z,17.23
2018-03-25T06:08:20.472Z,17.60
2018-03-25T06:10:48.904Z,17.08
2018-03-25T06:13:17.833Z,17.42
2018-03-25T06:15:47.185Z,18.33
2018-03-25T06:18:15.604Z,15.38
2018-03-25T06:20:44.025Z,15.85
2018-03-25T06:23:12.433Z,17.60
2018-03-25T06:25:40.841Z,15.73
2018-03-25T06:28:09.345Z,17.10
2018-03-25T06:30:37.763Z,15.63
2018-03-25T06:33:06.173Z,15.07
2018-03-25T06:35:34.563Z,16.70
2018-03-25T06:38:03.003Z,16.10
2018-03-25T06:40:31.451Z,13.77
2018-03-25T06:42:59.961Z,14.05
2018-03-25T06:45:28.399Z,12.37
2018-03-25T06:47:56.842Z,14.00
2018-03-25T06:50:25.265Z,13.50
2018-03-25T06:52:53.727Z,13.10
2018-03-25T06:55:22.156Z,13.20
2018-03-25T06:57:50.557Z,12.50
2018-03-25T07:00:19.024Z,12.63
2018-03-25T07:02:47.429Z,11.90
2018-03-25T07:05:15.879Z,11.03
2018-03-25T07:07:44.299Z,11.70
2018-03-25T07:10:12.718Z,11.80
2018-03-25T07:12:41.263Z,12.33
2018-03-25T07:15:09.666Z,13.03
2018-03-25T07:17:38.146Z,12.80
2018-03-25T07:20:06.676Z,11.73
2018-03-25T07:22:35.112Z,12.20
2018-03-25T07:25:03.640Z,12.57
2018-03-25T07:27:32.105Z,12.53
2018-03-25T07:30:00.636Z,12.57
2018-03-25T07:32:29.124Z,11.97
2018-03-25T07:34:57.599Z,13.00
2018-03-25T07:37:25.965Z,14.33
2018-03-25T07:39:54.392Z,13.70
2018-03-25T07:42:23.129Z,13.40
2018-03-25T07:44:51.668Z,13.87
2018-03-25T07:47:20.049Z,11.40
2018-03-25T07:49:48.519Z,12.57
2018-03-25T07:52:16.958Z,12.40
2018-03-25T07:54:45.434Z,12.17
2018-03-25T07:57:13.850Z,12.97
2018-03-25T07:59:42.241Z,12.57
2018-03-25T08:02:10.614Z,10.87
2018-03-25T08:04:38.993Z,12.90
2018-03-25T08:07:07.435Z,13.40
2018-03-25T08:09:35.877Z,13.30
2018-03-25T08:12:04.311Z,13.10
2018-03-25T08:14:32.716Z,12.30
2018-03-25T08:17:01.152Z,13.33
2018-03-25T08:19:29.665Z,12.83
2018-03-25T08:21:58.157Z,12.57
2018-03-25T08:24:26.585Z,12.30
2018-03-25T08:26:55.019Z,13.77
2018-03-25T08:29:23.442Z,13.73
2018-03-25T08:31:52.144Z,15.73
2018-03-25T08:34:20.557Z,15.23
2018-03-25T08:36:48.970Z,14.87
2018-03-25T08:39:17.390Z,13.40
2018-03-25T08:41:45.870Z,14.07
2018-03-25T08:44:14.317Z,14.30
2018-03-25T08:46:42.737Z,13.90
2018-03-25T08:49:11.191Z,14.20
2018-03-25T08:51:39.646Z,14.70
2018-03-25T08:54:08.130Z,14.47
2018-03-25T08:56:36.563Z,15.10
2018-03-25T08:59:05.058Z,15.37
2018-03-25T09:01:33.584Z,15.60
2018-03-25T09:04:02.025Z,14.53
2018-03-25T09:06:30.430Z,14.60
2018-03-25T09:08:58.846Z,15.43
2018-03-25T09:11:27.271Z,15.53
2018-03-25T09:13:55.731Z,15.30
2018-03-25T09:16:24.132Z,14.80
2018-03-25T09:18:52.542Z,14.53
2018-03-25T09:21:21.087Z,15.20
2018-03-25T09:23:49.485Z,15.50
2018-03-25T09:26:18.020Z,14.50
2018-03-25T09:28:46.437Z,14.77
2018-03-25T09:31:14.927Z,15.57
2018-03-25T09:33:43.394Z,15.27
2018-03-25T09:36:11.812Z,14.03
2018-03-25T09:38:40.244Z,15.17
2018-03-25T09:41:08.702Z,14.33
2018-03-25T09:43:37.105Z,13.90
2018-03-25T09:46:05.535Z,14.67
2018-03-25T09:48:34.174Z,14.77
2018-03-25T09:51:02.621Z,14.93
2018-03-25T09:53:31.047Z,15.03
2018-03-25T09:55:59.535Z,14.13
2018-03-25T09:58:28.098Z,15.00
2018-03-25T10:01:02.213Z,14.07
2018-03-25T10:03:32.543Z,14.30
2018-03-25T10:06:01.725Z,14.50
2018-03-25T10:08:30.193Z,14.43
2018-03-25T10:10:58.592Z,14.13
2018-03-25T10:13:27.002Z,14.73
2018-03-25T10:15:55.604Z,15.20
2018-03-25T10:18:24.176Z,14.97
2018-03-25T10:20:52.760Z,14.13
2018-03-25T10:23:21.377Z,13.60
2018-03-25T10:25:50.059Z,15.00
2018-03-25T10:28:18.494Z,14.73
2018-03-25T10:30:47.012Z,14.10
2018-03-25T10:33:15.408Z,14.77
2018-03-25T10:35:44.015Z,15.20
2018-03-25T10:38:12.539Z,16.00
2018-03-25T10:40:41.022Z,13.30
2018-03-25T10:43:09.467Z,15.10
2018-03-25T10:45:37.885Z,14.00
2018-03-25T10:48:06.349Z,15.73
2018-03-25T10:50:34.780Z,14.90
2018-03-25T10:53:03.268Z,14.63
2018-03-25T10:55:31.695Z,14.80
2018-03-25T10:58:00.150Z,16.40
2018-03-25T11:00:28.671Z,15.43
2018-03-25T11:02:57.045Z,15.13
2018-03-25T11:05:25.444Z,14.30
2018-03-25T11:07:53.851Z,17.37
2018-03-25T11:10:22.265Z,15.30
2018-03-25T11:12:50.735Z,15.53
2018-03-25T11:15:19.252Z,14.00
2018-03-25T11:17:47.647Z,14.43
2018-03-25T11:20:16.055Z,15.70
2018-03-25T11:22:44.653Z,13.60
2018-03-25T11:25:13.250Z,14.80
2018-03-25T11:27:41.697Z,15.20
2018-03-25T11:30:10.149Z,14.13
2018-03-25T11:32:38.620Z,13.87
2018-03-25T11:35:07.060Z,13.77
2018-03-25T11:37:35.514Z,12.60
2018-03-25T11:40:04.046Z,15.47
2018-03-25T11:42:32.543Z,14.60
2018-03-25T11:45:00.953Z,14.57
2018-03-25T11:47:29.563Z,14.57
2018-03-25T11:49:58.034Z,14.17
2018-03-25T11:52:26.811Z,14.63
2018-03-25T11:54:55.625Z,13.10
2018-03-25T11:57:24.026Z,14.93
2018-03-25T11:59:52.457Z,16.30
2018-03-25T12:02:20.855Z,15.93
2018-03-25T12:04:49.248Z,14.23
2018-03-25T12:07:17.720Z,14.90
2018-03-25T12:09:46.227Z,15.57
2018-03-25T12:12:14.603Z,15.03
2018-03-25T12:14:42.994Z,14.70
2018-03-25T12:17:11.425Z,14.13
2018-03-25T12:19:39.807Z,14.73
2018-03-25T12:22:08.253Z,13.90
2018-03-25T12:24:36.674Z,13.50
2018-03-25T12:27:05.083Z,13.20
2018-03-25T12:29:33.447Z,12.93
2018-03-25T12:32:02.485Z,13.37
2018-03-25T12:34:30.926Z,13.60
2018-03-25T12:36:59.378Z,12.80
2018-03-25T12:39:28.936Z,13.87
2018-03-25T12:41:57.502Z,14.63
2018-03-25T12:44:25.947Z,15.20
2018-03-25T12:46:54.506Z,16.67
2018-03-25T12:49:22.938Z,15.87
2018-03-25T12:51:51.446Z,16.43
2018-03-25T12:54:20.187Z,15.03
2018-03-25T12:56:48.717Z,15.23
2018-03-25T12:59:17.788Z,15.07
2018-03-25T13:01:46.226Z,15.40
2018-03-25T13:04:14.764Z,15.63
2018-03-25T13:06:43.196Z,16.00
2018-03-25T13:09:11.612Z,15.87
2018-03-25T13:11:40.034Z,15.63
2018-03-25T13:14:08.451Z,15.67
2018-03-25T13:16:36.863Z,16.60
2018-03-25T13:19:06.278Z,14.73
2018-03-25T13:21:34.681Z,16.50
2018-03-25T13:24:03.183Z,15.50
2018-03-25T13:26:31.618Z,14.43
2018-03-25T13:29:00.034Z,14.80
2018-03-25T13:31:28.488Z,14.80
2018-03-25T13:33:56.908Z,15.03
2018-03-25T13:36:25.319Z,16.10
2018-03-25T13:38:53.717Z,14.97
2018-03-25T13:41:22.718Z,16.27
2018-03-25T13:43:52.107Z,14.80
2018-03-25T13:46:20.556Z,16.43
2018-03-25T13:48:49.021Z,18.20
2018-03-25T13:51:17.476Z,16.97
2018-03-25T13:53:45.967Z,17.67
2018-03-25T13:56:14.376Z,19.07
2018-03-25T13:58:42.818Z,18.13
2018-03-25T14:01:11.313Z,19.43
2018-03-25T14:03:39.765Z,19.93
2018-03-25T14:06:08.192Z,19.53
2018-03-25T14:08:36.689Z,19.97
2018-03-25T14:11:05.141Z,19.77
2018-03-25T14:13:33.748Z,19.63
2018-03-25T14:16:02.169Z,19.20
2018-03-25T14:18:30.834Z,19.00
2018-03-25T14:20:59.260Z,19.77
2018-03-25T14:23:27.665Z,19.13
2018-03-25T14:25:56.075Z,18.67
2018-03-25T14:28:24.507Z,18.67
2018-03-25T14:30:52.971Z,19.20
2018-03-25T14:33:21.336Z,19.50
2018-03-25T14:35:49.795Z,19.50
2018-03-25T14:38:18.185Z,19.17
2018-03-25T14:40:46.728Z,17.70
2018-03-25T14:43:15.223Z,19.63
2018-03-25T14:45:43.651Z,19.47
2018-03-25T14:48:12.114Z,19.73
2018-03-25T14:50:40.567Z,19.93
2018-03-25T14:53:08.981Z,20.07
2018-03-25T14:55:37.389Z,19.67
2018-03-25T14:58:05.800Z,19.63
2018-03-25T15:00:34.283Z,20.03
2018-03-25T15:03:02.743Z,19.90
2018-03-25T15:05:33.571Z,20.90
2018-03-25T15:08:02.588Z,21.37
2018-03-25T15:10:31.003Z,19.80
2018-03-25T15:12:59.627Z,21.80
2018-03-25T15:15:28.061Z,22.50
2018-03-25T15:17:57.632Z,22.60
2018-03-25T15:20:27.602Z,21.60
2018-03-25T15:22:56.027Z,22.47
2018-03-25T15:25:24.495Z,24.17
2018-03-25T15:27:52.952Z,23.67
2018-03-25T15:30:21.397Z,23.90
2018-03-25T15:32:50.579Z,24.00
2018-03-25T15:35:20.486Z,23.00
2018-03-25T15:37:50.035Z,23.93
2018-03-25T15:40:18.502Z,23.00
2018-03-25T15:42:46.919Z,22.57
2018-03-25T15:45:16.102Z,24.23
2018-03-25T15:47:44.515Z,23.07
2018-03-25T15:50:13.059Z,24.37
2018-03-25T15:52:41.588Z,23.20
2018-03-25T15:55:10.167Z,22.90
2018-03-25T15:57:38.603Z,23.83
2018-03-25T16:00:07.845Z,23.43
2018-03-25T16:02:36.312Z,24.50
2018-03-25T16:05:04.730Z,23.37
2018-03-25T16:07:33.197Z,23.50
2018-03-25T16:10:01.736Z,24.60
2018-03-25T16:12:30.248Z,23.80
2018-03-25T16:14:58.856Z,24.13
2018-03-25T16:17:27.361Z,23.40
2018-03-25T16:19:55.907Z,25.80
2018-03-25T16:22:24.687Z,24.73
2018-03-25T16:24:53.157Z,24.43
2018-03-25T16:27:21.548Z,25.90
2018-03-25T16:29:50.996Z,25.03
2018-03-25T16:32:19.465Z,25.93
2018-03-25T16:34:47.885Z,25.23
2018-03-25T16:37:16.300Z,27.40
2018-03-25T16:39:44.849Z,26.87
2018-03-25T16:42:13.296Z,27.73
2018-03-25T16:44:41.822Z,28.70
2018-03-25T16:47:10.381Z,26.17
2018-03-25T16:49:38.832Z,27.40
2018-03-25T16:52:07.257Z,26.97
2018-03-25T16:54:35.707Z,27.77
2018-03-25T16:57:04.269Z,29.57
2018-03-25T16:59:32.777Z,28.17
2018-03-25T17:02:01.225Z,26.43
2018-03-25T17:04:29.716Z,25.97
2018-03-25T17:06:58.151Z,27.10
2018-03-25T17:09:26.565Z,27.67
2018-03-25T17:11:54.978Z,28.87
2018-03-25T17:14:23.433Z,26.37
2018-03-25T17:16:51.924Z,27.77
2018-03-25T17:19:20.403Z,27.23
2018-03-25T17:21:48.807Z,27.13
2018-03-25T17:24:17.334Z,26.37
2018-03-25T17:26:45.788Z,26.80
2018-03-25T17:29:14.335Z,25.90
2018-03-25T17:31:42.800Z,30.03
2018-03-25T17:34:11.255Z,27.57
2018-03-25T17:36:39.689Z,29.10
2018-03-25T17:39:08.117Z,28.23
2018-03-25T17:41:36.888Z,28.67
2018-03-25T17:44:05.395Z,28.40
2018-03-25T17:46:33.806Z,28.83
2018-03-25T17:49:02.221Z,28.97
2018-03-25T17:51:30.611Z,29.27
2018-03-25T17:53:59.029Z,29.60
2018-03-25T17:56:27.533Z,26.20
2018-03-25T17:58:55.995Z,29.40
2018-03-25T18:01:24.418Z,27.33
2018-03-25T18:03:52.822Z,28.20
2018-03-25T18:06:21.275Z,29.27
2018-03-25T18:08:49.792Z,29.40
2018-03-25T18:11:18.200Z,28.70
2018-03-25T18:13:46.630Z,27.30
2018-03-25T18:16:15.147Z,29.90
2018-03-25T18:18:43.584Z,27.50
2018-03-25T18:21:12.050Z,27.50
2018-03-25T18:23:40.448Z,29.37
2018-03-25T18:26:08.941Z,30.67
2018-03-25T18:28:37.389Z,30.97
2018-03-25T18:31:05.873Z,27.90
2018-03-25T18:33:34.285Z,26.50
2018-03-25T18:36:02.687Z,28.30
2018-03-25T18:38:31.156Z,28.67
2018-03-25T18:40:59.539Z,28.23
2018-03-25T18:43:27.964Z,27.53
2018-03-25T18:45:56.400Z,27.17
2018-03-25T18:48:24.796Z,26.90
2018-03-25T18:50:53.285Z,29.27
2018-03-25T18:53:21.680Z,25.97
2018-03-25T18:55:50.097Z,28.57
2018-03-25T18:58:18.491Z,28.67
2018-03-25T19:00:46.929Z,30.50
2018-03-25T19:03:15.482Z,28.33
2018-03-25T19:05:43.871Z,28.02
2018-03-25T19:08:12.271Z,27.83
2018-03-25T19:10:40.717Z,29.12
2018-03-25T19:13:09.119Z,31.30
2018-03-25T19:15:37.699Z,27.85
2018-03-25T19:18:06.086Z,28.62
2018-03-25T19:20:34.493Z,29.27
2018-03-25T19:23:02.880Z,29.95
2018-03-25T19:25:31.325Z,30.37
2018-03-25T19:27:59.769Z,29.63
2018-03-25T19:30:28.160Z,27.83
2018-03-25T19:32:56.651Z,28.33
2018-03-25T19:35:25.033Z,29.43
2018-03-25T19:37:53.472Z,27.87
2018-03-25T19:40:21.858Z,33.88
2018-03-25T19:42:50.244Z,28.05
2018-03-25T19:45:18.735Z,29.85
2018-03-25T19:47:47.135Z,27.67
2018-03-25T19:50:15.547Z,28.45
2018-03-25T19:52:43.960Z,29.17
2018-03-25T19:55:12.379Z,29.83
2018-03-25T19:57:40.951Z,27.85
2018-03-25T20:00:09.350Z,30.52
2018-03-25T20:02:37.753Z,29.02
2018-03-25T20:05:06.125Z,30.40
2018-03-25T20:07:34.518Z,29.10
2018-03-25T20:10:02.934Z,28.95
2018-03-25T20:12:31.295Z,31.37
2018-03-25T20:14:59.702Z,29.50
2018-03-25T20:17:28.198Z,30.42
2018-03-25T20:19:56.605Z,34.00
2018-03-25T20:22:24.984Z,30.67
2018-03-25T20:24:53.473Z,30.35
2018-03-25T20:27:21.869Z,31.35
2018-03-25T20:29:50.236Z,29.02
2018-03-25T20:32:18.612Z,31.75
2018-03-25T20:34:47.019Z,31.62
2018-03-25T20:37:15.379Z,31.80
2018-03-25T20:39:43.770Z,31.12
2018-03-25T20:42:12.188Z,32.08
2018-03-25T20:44:40.688Z,32.03
2018-03-25T20:47:09.075Z,32.83
2018-03-25T20:49:37.457Z,31.75
2018-03-25T20:52:05.911Z,33.13
2018-03-25T20:54:34.433Z,32.85
2018-03-25T20:57:02.803Z,33.17
2018-03-25T20:59:31.210Z,34.03
2018-03-25T21:01:59.584Z,32.40
2018-03-25T21:04:27.975Z,31.87
2018-03-25T21:06:56.454Z,32.83
2018-03-25T21:09:24.844Z,31.90
2018-03-25T21:11:53.314Z,33.42
2018-03-25T21:14:21.691Z,34.13
2018-03-25T21:16:50.094Z,34.25
2018-03-25T21:19:18.453Z,32.35
2018-03-25T21:21:46.829Z,31.98
2018-03-25T21:24:15.232Z,31.67
2018-03-25T21:26:43.642Z,32.53
2018-03-25T21:29:12.079Z,32.25
2018-03-25T21:31:40.609Z,31.70
2018-03-25T21:34:08.985Z,31.75
2018-03-25T21:36:37.368Z,31.87
2018-03-25T21:39:05.769Z,29.95
2018-03-25T21:41:34.138Z,33.63
2018-03-25T21:44:02.514Z,33.35
2018-03-25T21:46:30.881Z,34.10
2018-03-25T21:48:59.412Z,34.25
2018-03-25T21:51:27.776Z,33.65
2018-03-25T21:53:56.142Z,32.00
2018-03-25T21:56:24.535Z,32.38
2018-03-25T21:58:52.900Z,33.05
2018-03-25T22:01:21.289Z,31.40
2018-03-25T22:03:49.688Z,31.42
2018-03-25T22:06:18.212Z,30.60
2018-03-25T22:08:46.629Z,29.85
2018-03-25T22:11:15.012Z,32.10
2018-03-25T22:13:43.388Z,28.83
2018-03-25T22:16:11.751Z,29.87
2018-03-25T22:18:51.843Z,33.53
2018-03-25T22:21:20.232Z,32.97
2018-03-25T22:23:48.788Z,35.72
2018-03-25T22:26:17.156Z,33.33
2018-03-25T22:28:45.533Z,33.33
2018-03-25T22:31:14.118Z,33.35
2018-03-25T22:33:42.639Z,34.95
2018-03-25T22:36:11.159Z,35.90
2018-03-25T22:38:39.583Z,34.53
2018-03-25T22:41:07.964Z,34.03
2018-03-25T22:43:36.333Z,34.20
2018-03-25T22:46:05.703Z,31.98
2018-03-25T22:48:34.449Z,37.45
2018-03-25T22:51:02.871Z,33.30
2018-03-25T22:53:31.344Z,34.70
2018-03-25T22:55:59.788Z,31.73
2018-03-25T22:58:28.194Z,34.75
2018-03-25T23:00:56.605Z,35.30
2018-03-25T23:03:24.975Z,36.35
2018-03-25T23:05:53.365Z,33.60
2018-03-25T23:08:21.789Z,31.60
2018-03-25T23:10:50.200Z,33.13
2018-03-25T23:13:18.572Z,34.60
2018-03-25T23:15:46.946Z,34.92
2018-03-25T23:18:15.347Z,35.40
2018-03-25T23:20:43.722Z,35.55
2018-03-25T23:23:12.308Z,34.80
2018-03-25T23:25:40.688Z,34.25
2018-03-25T23:28:09.075Z,32.42
2018-03-25T23:30:37.450Z,35.38
2018-03-25T23:33:05.829Z,35.05
2018-03-25T23:35:34.244Z,33.47
2018-03-25T23:38:02.627Z,33.90
2018-03-25T23:40:31.044Z,34.03
2018-03-25T23:42:59.436Z,32.20
2018-03-25T23:45:27.807Z,34.58
2018-03-25T23:47:56.181Z,38.58
2018-03-25T23:50:24.620Z,35.00
2018-03-25T23:52:53.059Z,38.05
2018-03-25T23:55:21.462Z,39.13
2018-03-25T23:57:49.828Z,34.67
